Time;durP1;ratioP1;P1;durP2;ratioP2;P2;SDS_P1;SDS_P2;PMS_P1;PMS_P2;Temp;Humidity;BMP_temperature;BMP_pressure;BME280_temperature;BME280_humidity;BME280_pressure;Samples;Min_cycle;Max_cycle;Signal;HPM_P1;HPM_P2
2024/03/26 00:01:35;;;;;;;16.58;2.78;;;7.80;99.90;;;;;;5051419;28;20545;-55
2024/03/26 00:04:00;;;;;;;6.05;2.05;;;7.90;99.90;;;;;;5049708;28;20128;-54
2024/03/26 00:06:26;;;;;;;7.55;2.35;;;7.90;99.90;;;;;;5051637;28;20111;-55
2024/03/26 00:08:52;;;;;;;4.10;1.35;;;7.80;99.90;;;;;;5051910;28;20485;-55
2024/03/26 00:11:22;;;;;;;6.30;2.35;;;7.80;99.90;;;;;;5053742;28;20017;-55
2024/03/26 00:13:48;;;;;;;6.40;1.92;;;7.80;99.90;;;;;;5055799;28;20099;-55
2024/03/26 00:16:14;;;;;;;6.40;1.63;;;7.80;99.90;;;;;;5050797;28;20107;-55
2024/03/26 00:18:39;;;;;;;10.15;2.03;;;7.80;99.90;;;;;;5055866;28;20492;-55
2024/03/26 00:21:05;;;;;;;9.00;2.50;;;7.70;99.90;;;;;;5055719;28;20142;-55
2024/03/26 00:23:31;;;;;;;10.52;2.53;;;7.70;99.90;;;;;;5055432;28;20507;-55
2024/03/26 00:25:56;;;;;;;3.95;1.90;;;7.60;99.90;;;;;;5055378;28;20031;-55
2024/03/26 00:28:22;;;;;;;11.50;2.05;;;7.60;99.90;;;;;;5055641;28;20029;-53
2024/03/26 00:30:47;;;;;;;5.22;1.83;;;7.60;99.90;;;;;;5053034;28;20029;-53
2024/03/26 00:33:13;;;;;;;3.28;1.95;;;7.60;99.90;;;;;;5054197;28;20121;-54
2024/03/26 00:35:39;;;;;;;3.92;1.83;;;7.60;99.90;;;;;;5055538;28;20021;-53
2024/03/26 00:38:05;;;;;;;7.20;2.03;;;7.60;99.90;;;;;;5048032;28;20078;-55
2024/03/26 00:40:30;;;;;;;7.70;1.70;;;7.60;99.90;;;;;;5048408;28;20079;-54
2024/03/26 00:42:56;;;;;;;13.98;2.25;;;7.50;99.90;;;;;;5052832;28;20017;-55
2024/03/26 00:45:21;;;;;;;9.85;2.13;;;7.50;99.90;;;;;;5055467;28;20465;-41
2024/03/26 00:47:47;;;;;;;8.75;1.90;;;7.50;99.90;;;;;;5055334;28;20503;-40
2024/03/26 00:50:13;;;;;;;3.83;2.08;;;7.50;99.90;;;;;;5055349;28;20029;-42
2024/03/26 00:52:39;;;;;;;10.65;2.72;;;7.50;99.90;;;;;;5053348;28;20025;-45
2024/03/26 00:55:04;;;;;;;5.45;1.60;;;7.50;99.90;;;;;;5050638;28;20024;-46
2024/03/26 00:57:30;;;;;;;3.35;1.58;;;7.50;99.90;;;;;;5049915;28;20060;-44
2024/03/26 00:59:56;;;;;;;3.55;1.75;;;7.50;99.90;;;;;;5040429;28;20351;-46
2024/03/26 01:02:21;;;;;;;9.27;2.10;;;7.50;99.90;;;;;;5052757;28;20029;-42
2024/03/26 01:04:47;;;;;;;5.55;1.60;;;7.40;99.90;;;;;;5055333;28;20033;-41
2024/03/26 01:07:12;;;;;;;7.45;1.77;;;7.40;99.90;;;;;;5036457;28;20072;-41
2024/03/26 01:09:38;;;;;;;4.93;2.15;;;7.40;99.90;;;;;;5048855;28;20414;-40
2024/03/26 01:12:04;;;;;;;6.03;2.00;;;7.40;99.90;;;;;;5051352;28;20028;-48
2024/03/26 01:14:29;;;;;;;10.40;2.08;;;7.40;99.90;;;;;;5039167;28;20673;-56
2024/03/26 01:16:55;;;;;;;4.60;1.92;;;7.40;99.90;;;;;;5052968;28;20041;-51
2024/03/26 01:19:21;;;;;;;4.65;2.33;;;7.40;99.90;;;;;;5054214;28;20033;-50
2024/03/26 01:21:47;;;;;;;8.10;2.22;;;7.40;99.90;;;;;;5051847;28;20413;-54
2024/03/26 01:24:13;;;;;;;11.18;2.13;;;7.40;99.90;;;;;;5052100;28;20480;-55
2024/03/26 01:26:39;;;;;;;7.18;1.77;;;7.40;99.90;;;;;;5044763;28;20030;-55
2024/03/26 01:29:04;;;;;;;1.73;1.23;;;7.40;99.90;;;;;;5035007;28;20036;-55
2024/03/26 01:31:30;;;;;;;6.53;1.60;;;7.40;99.90;;;;;;5049635;28;20039;-54
2024/03/26 01:33:55;;;;;;;4.88;1.73;;;7.40;99.90;;;;;;5053874;28;20033;-51
2024/03/26 01:36:21;;;;;;;5.97;2.60;;;7.40;99.90;;;;;;5054570;28;20371;-55
2024/03/26 01:38:47;;;;;;;4.60;1.90;;;7.30;99.90;;;;;;5052906;28;20033;-55
2024/03/26 01:41:12;;;;;;;7.30;2.10;;;7.30;99.90;;;;;;5054510;28;20028;-53
2024/03/26 01:43:38;;;;;;;11.43;1.73;;;7.20;99.90;;;;;;5054196;28;20112;-55
2024/03/26 01:46:04;;;;;;;8.50;1.92;;;7.20;99.90;;;;;;5054499;28;20469;-54
2024/03/26 01:48:29;;;;;;;3.15;2.17;;;7.20;99.90;;;;;;5053359;28;20507;-54
2024/03/26 01:50:56;;;;;;;2.22;1.80;;;7.20;99.90;;;;;;5054342;28;20028;-53
2024/03/26 01:53:21;;;;;;;1.63;1.52;;;7.20;99.90;;;;;;5054313;28;20028;-55
2024/03/26 01:55:48;;;;;;;6.93;1.80;;;7.20;99.90;;;;;;5054296;28;20534;-55
2024/03/26 01:58:15;;;;;;;10.93;2.10;;;7.20;99.90;;;;;;5053441;28;20110;-55
2024/03/26 02:00:42;;;;;;;7.97;1.77;;;7.10;99.90;;;;;;5053561;28;20455;-43
2024/03/26 02:03:08;;;;;;;10.68;2.45;;;7.00;99.90;;;;;;5042111;28;20032;-42
2024/03/26 02:05:34;;;;;;;3.95;1.77;;;7.00;99.90;;;;;;5046761;28;20033;-41
2024/03/26 02:08:00;;;;;;;11.50;3.33;;;7.00;99.90;;;;;;5042618;28;20060;-39
2024/03/26 02:10:26;;;;;;;5.25;1.77;;;7.00;99.90;;;;;;5051297;28;20609;-41
2024/03/26 02:12:51;;;;;;;6.40;1.85;;;7.00;99.90;;;;;;5053295;28;20112;-44
2024/03/26 02:15:17;;;;;;;8.30;1.67;;;7.00;99.90;;;;;;5051879;28;20025;-40
2024/03/26 02:17:43;;;;;;;8.15;2.33;;;7.00;99.90;;;;;;5051946;28;20036;-43
2024/03/26 02:20:09;;;;;;;6.38;1.90;;;7.00;99.90;;;;;;5053536;28;20367;-40
2024/03/26 02:22:35;;;;;;;3.25;1.88;;;7.00;99.90;;;;;;5053750;28;20485;-45
2024/03/26 02:25:01;;;;;;;2.28;1.80;;;7.00;99.90;;;;;;5053541;28;20031;-42
2024/03/26 02:27:26;;;;;;;5.18;2.05;;;7.00;99.90;;;;;;5043622;28;20029;-45
2024/03/26 02:29:52;;;;;;;6.28;1.80;;;7.00;99.90;;;;;;5053413;28;20029;-42
2024/03/26 02:32:17;;;;;;;3.85;1.30;;;6.90;99.90;;;;;;5053059;28;20363;-41
2024/03/26 02:34:44;;;;;;;4.65;2.13;;;6.90;99.90;;;;;;5052748;28;20025;-46
2024/03/26 02:37:10;;;;;;;7.07;2.25;;;6.90;99.90;;;;;;5052951;28;20025;-39
2024/03/26 02:39:35;;;;;;;4.85;1.70;;;6.80;99.90;;;;;;5053499;28;20052;-46
2024/03/26 02:42:01;;;;;;;4.75;2.10;;;6.80;99.90;;;;;;5050028;28;20489;-43
2024/03/26 02:44:27;;;;;;;4.75;2.20;;;6.80;99.90;;;;;;5032046;28;20444;-46
2024/03/26 02:46:52;;;;;;;3.38;1.63;;;6.80;99.90;;;;;;5049694;28;20056;-41
2024/03/26 02:49:18;;;;;;;17.20;2.80;;;6.70;99.90;;;;;;5053056;28;20025;-43
2024/03/26 02:51:44;;;;;;;3.15;1.60;;;6.70;99.90;;;;;;5051202;28;20130;-44
2024/03/26 02:54:09;;;;;;;5.15;1.55;;;6.70;99.90;;;;;;5050963;28;20025;-45
2024/03/26 02:56:35;;;;;;;5.38;2.17;;;6.70;99.90;;;;;;5052876;28;20474;-43
2024/03/26 02:59:00;;;;;;;3.72;1.60;;;6.70;99.90;;;;;;5052820;28;20028;-43
2024/03/26 03:01:26;;;;;;;5.05;2.83;;;6.70;99.90;;;;;;5051432;28;20527;-41
2024/03/26 03:03:52;;;;;;;2.03;1.40;;;6.60;99.90;;;;;;5052487;28;20120;-42
2024/03/26 03:06:17;;;;;;;8.10;1.25;;;6.70;99.90;;;;;;5048910;28;20470;-43
2024/03/26 03:08:43;;;;;;;6.80;1.48;;;6.60;99.90;;;;;;5052422;28;20025;-41
2024/03/26 03:11:08;;;;;;;6.05;1.60;;;6.60;99.90;;;;;;5049615;28;20371;-53
2024/03/26 03:13:34;;;;;;;4.00;1.85;;;6.60;99.90;;;;;;5052769;28;20063;-57
2024/03/26 03:16:00;;;;;;;7.72;1.58;;;6.60;99.90;;;;;;5051368;28;20033;-55
2024/03/26 03:18:29;;;;;;;2.22;1.52;;;6.60;99.90;;;;;;5032875;28;20099;-56
2024/03/26 03:20:55;;;;;;;3.10;1.60;;;6.60;99.90;;;;;;5045701;28;20400;-54
2024/03/26 03:23:21;;;;;;;2.45;1.85;;;6.60;99.90;;;;;;5052550;28;20032;-56
2024/03/26 03:25:53;;;;;;;11.88;2.50;;;6.60;99.90;;;;;;5052585;28;20483;-55
2024/03/26 03:28:19;;;;;;;6.63;1.90;;;6.60;99.90;;;;;;5052551;28;20025;-52
2024/03/26 03:30:45;;;;;;;8.40;1.67;;;6.60;99.90;;;;;;5051879;28;20032;-54
2024/03/26 03:33:10;;;;;;;7.90;1.88;;;6.50;99.90;;;;;;5052250;28;20082;-55
2024/03/26 03:35:42;;;;;;;5.00;2.15;;;6.50;99.90;;;;;;5051122;28;20082;-55
2024/03/26 03:38:08;;;;;;;5.15;2.67;;;6.50;99.90;;;;;;5052315;28;20029;-45
2024/03/26 03:40:35;;;;;;;5.65;2.33;;;6.50;99.90;;;;;;5052461;28;20025;-46
2024/03/26 03:43:01;;;;;;;5.88;1.70;;;6.60;99.90;;;;;;5050478;28;20060;-46
2024/03/26 03:45:28;;;;;;;3.45;1.50;;;6.60;99.90;;;;;;5051476;28;20086;-44
2024/03/26 03:47:54;;;;;;;4.65;1.88;;;6.60;99.90;;;;;;5031264;28;20029;-43
2024/03/26 03:50:20;;;;;;;3.05;1.65;;;6.60;99.90;;;;;;5037287;28;20017;-41
2024/03/26 03:52:45;;;;;;;6.80;2.22;;;6.60;99.90;;;;;;5052190;28;20013;-40
2024/03/26 03:55:11;;;;;;;3.40;1.27;;;6.60;99.90;;;;;;5051326;28;20033;-44
2024/03/26 03:57:39;;;;;;;5.38;1.92;;;6.60;99.90;;;;;;5034711;28;20037;-41
2024/03/26 04:00:06;;;;;;;2.10;1.00;;;6.60;99.90;;;;;;5051438;28;20347;-44
2024/03/26 04:02:33;;;;;;;2.65;1.40;;;6.70;99.90;;;;;;5050577;28;20028;-41
2024/03/26 04:04:59;;;;;;;6.05;1.58;;;6.70;99.90;;;;;;5052006;28;20033;-44
2024/03/26 04:07:24;;;;;;;2.72;1.60;;;6.70;99.90;;;;;;5051439;28;20123;-45
2024/03/26 04:09:53;;;;;;;3.50;1.70;;;6.70;99.90;;;;;;5051082;28;20116;-40
2024/03/26 04:12:19;;;;;;;5.07;1.75;;;6.70;99.90;;;;;;5050048;28;20119;-49
2024/03/26 04:14:45;;;;;;;4.82;1.45;;;6.80;99.90;;;;;;5047264;28;20032;-44
2024/03/26 04:17:11;;;;;;;3.90;1.50;;;6.90;99.90;;;;;;5048607;28;20041;-42
2024/03/26 04:19:37;;;;;;;12.20;1.77;;;6.80;99.90;;;;;;5031964;28;20025;-40
2024/03/26 04:22:02;;;;;;;3.83;1.60;;;6.90;99.90;;;;;;5039827;28;20028;-53
2024/03/26 04:24:28;;;;;;;6.60;1.50;;;6.90;99.90;;;;;;5051770;28;20114;-55
2024/03/26 04:26:53;;;;;;;7.45;1.38;;;6.90;99.90;;;;;;5047736;28;20032;-55
2024/03/26 04:29:19;;;;;;;3.80;1.75;;;6.90;99.90;;;;;;5050354;28;20017;-56
2024/03/26 04:31:45;;;;;;;5.88;1.45;;;6.80;99.90;;;;;;5050320;28;20025;-56
2024/03/26 04:34:10;;;;;;;5.50;1.45;;;6.90;99.90;;;;;;5050706;28;20033;-57
2024/03/26 04:36:36;;;;;;;6.07;1.73;;;6.80;99.90;;;;;;5050132;28;20473;-46
2024/03/26 04:39:03;;;;;;;6.85;2.05;;;6.80;99.90;;;;;;5050844;28;20060;-42
2024/03/26 04:41:28;;;;;;;7.25;2.08;;;6.80;99.90;;;;;;5051565;28;20421;-44
2024/03/26 04:43:54;;;;;;;5.57;1.48;;;6.80;99.90;;;;;;5051241;28;20039;-43
2024/03/26 04:46:20;;;;;;;7.90;1.67;;;6.70;99.90;;;;;;5044229;28;20060;-42
2024/03/26 04:48:45;;;;;;;2.10;1.60;;;6.70;99.90;;;;;;5046627;28;20064;-41
2024/03/26 04:51:11;;;;;;;6.72;1.80;;;6.70;99.90;;;;;;5049723;28;20027;-47
2024/03/26 04:53:37;;;;;;;6.32;2.20;;;6.70;99.90;;;;;;5050211;28;20458;-42
2024/03/26 04:56:02;;;;;;;4.13;1.48;;;6.70;99.90;;;;;;5048048;28;20479;-42
2024/03/26 04:58:28;;;;;;;4.57;1.67;;;6.70;99.90;;;;;;5055267;28;20036;-53
2024/03/26 05:00:54;;;;;;;3.60;1.27;;;6.60;99.90;;;;;;5053198;28;20033;-43
2024/03/26 05:03:19;;;;;;;3.80;2.22;;;6.60;99.90;;;;;;5052847;28;20028;-41
2024/03/26 05:05:45;;;;;;;6.50;1.90;;;6.50;99.90;;;;;;5053159;28;20481;-44
2024/03/26 05:08:11;;;;;;;2.00;1.13;;;6.50;99.90;;;;;;5042118;28;20106;-43
2024/03/26 05:10:36;;;;;;;5.05;1.50;;;6.50;99.90;;;;;;5035012;28;20022;-43
2024/03/26 05:13:02;;;;;;;4.93;1.90;;;6.50;99.90;;;;;;5053986;28;20108;-46
2024/03/26 05:15:28;;;;;;;6.13;1.27;;;6.40;99.90;;;;;;5052763;28;20502;-48
2024/03/26 05:17:53;;;;;;;12.93;2.20;;;6.40;99.90;;;;;;5053858;28;20033;-43
2024/03/26 05:20:21;;;;;;;6.32;1.40;;;6.40;99.90;;;;;;5053901;28;20413;-40
2024/03/26 05:22:46;;;;;;;5.10;1.75;;;6.40;99.90;;;;;;5053464;28;20421;-41
2024/03/26 05:25:12;;;;;;;6.57;2.15;;;6.40;99.90;;;;;;5051939;28;20064;-41
2024/03/26 05:27:37;;;;;;;4.18;1.42;;;6.40;99.90;;;;;;5052773;28;20272;-41
2024/03/26 05:30:03;;;;;;;4.68;1.77;;;6.40;99.90;;;;;;5053885;28;20029;-43
2024/03/26 05:32:29;;;;;;;4.82;1.65;;;6.40;99.90;;;;;;5051662;28;20489;-54
2024/03/26 05:34:55;;;;;;;3.97;2.03;;;6.40;99.90;;;;;;5053359;28;20056;-55
2024/03/26 05:37:20;;;;;;;1.33;1.23;;;6.40;99.90;;;;;;5053120;28;20048;-56
2024/03/26 05:39:46;;;;;;;7.20;1.65;;;6.40;99.90;;;;;;5052620;28;20041;-55
2024/03/26 05:42:11;;;;;;;6.47;1.58;;;6.40;99.90;;;;;;5053459;28;20040;-52
2024/03/26 05:44:37;;;;;;;4.82;1.63;;;6.40;99.90;;;;;;5053526;28;20470;-54
2024/03/26 05:47:03;;;;;;;5.47;1.80;;;6.40;99.90;;;;;;5053026;28;20108;-54
2024/03/26 05:49:29;;;;;;;2.97;1.83;;;6.40;99.90;;;;;;5053687;28;20029;-58
2024/03/26 05:51:54;;;;;;;6.10;2.00;;;6.30;99.90;;;;;;5053052;28;20453;-53
2024/03/26 05:54:20;;;;;;;10.02;1.88;;;6.40;99.90;;;;;;5039904;28;20032;-55
2024/03/26 05:56:46;;;;;;;4.20;1.38;;;6.40;99.90;;;;;;5053786;28;20036;-42
2024/03/26 05:59:11;;;;;;;5.10;1.20;;;6.40;99.90;;;;;;5053492;28;20055;-41
2024/03/26 06:01:37;;;;;;;2.30;1.70;;;6.40;99.90;;;;;;5052275;28;20108;-48
2024/03/26 06:04:03;;;;;;;5.90;1.88;;;6.40;99.90;;;;;;5053693;28;20481;-45
2024/03/26 06:06:28;;;;;;;1.83;1.50;;;6.40;99.90;;;;;;5053305;28;20115;-55
2024/03/26 06:08:54;;;;;;;7.05;2.08;;;6.50;99.90;;;;;;5044220;28;20032;-55
2024/03/26 06:11:20;;;;;;;5.60;1.77;;;6.50;99.90;;;;;;5052537;28;20026;-41
2024/03/26 06:13:45;;;;;;;2.45;1.73;;;6.60;99.90;;;;;;5046952;28;20036;-47
2024/03/26 06:16:11;;;;;;;5.22;1.83;;;6.70;99.90;;;;;;5053182;28;20053;-40
2024/03/26 06:18:37;;;;;;;4.13;1.25;;;6.70;99.90;;;;;;5052410;28;20032;-40
2024/03/26 06:21:04;;;;;;;1.35;1.17;;;6.70;99.90;;;;;;5043419;28;20056;-42
2024/03/26 06:23:30;;;;;;;10.43;1.40;;;6.70;99.90;;;;;;5043610;28;20091;-41
2024/03/26 06:25:56;;;;;;;12.50;2.15;;;6.80;99.90;;;;;;5050331;28;20032;-41
2024/03/26 06:28:22;;;;;;;3.65;1.67;;;6.80;99.90;;;;;;5053100;28;20115;-43
2024/03/26 06:30:47;;;;;;;4.07;1.83;;;6.90;99.90;;;;;;5052150;28;20434;-44
2024/03/26 06:33:15;;;;;;;2.20;1.08;;;6.90;99.90;;;;;;5044069;28;20025;-45
2024/03/26 06:35:41;;;;;;;4.13;1.35;;;7.00;99.90;;;;;;5044705;28;20021;-43
2024/03/26 06:38:08;;;;;;;9.13;1.67;;;7.00;99.90;;;;;;5052684;28;20094;-40
2024/03/26 06:40:37;;;;;;;2.95;1.52;;;7.10;99.90;;;;;;5051601;28;20090;-48
2024/03/26 06:43:03;;;;;;;4.07;1.60;;;7.10;99.90;;;;;;5034420;28;20037;-55
2024/03/26 06:45:30;;;;;;;5.80;2.28;;;7.20;99.90;;;;;;5051686;28;20037;-55
2024/03/26 06:47:56;;;;;;;3.38;1.77;;;7.30;99.90;;;;;;5050525;28;20032;-54
2024/03/26 06:50:21;;;;;;;3.92;1.90;;;7.30;99.90;;;;;;5048418;28;20458;-54
2024/03/26 06:52:47;;;;;;;21.52;5.07;;;7.40;99.90;;;;;;5047002;28;20033;-55
2024/03/26 06:55:17;;;;;;;7.10;1.60;;;7.40;99.90;;;;;;5051722;28;20033;-54
2024/03/26 06:57:43;;;;;;;2.80;1.50;;;7.40;99.90;;;;;;5052023;28;20033;-54
2024/03/26 07:00:12;;;;;;;6.18;2.22;;;7.60;99.90;;;;;;5040767;28;20029;-55
2024/03/26 07:02:38;;;;;;;5.30;1.83;;;7.60;99.90;;;;;;5051392;28;20024;-52
2024/03/26 07:05:05;;;;;;;6.13;1.88;;;7.70;99.90;;;;;;5050870;28;20389;-52
2024/03/26 07:07:34;;;;;;;5.27;1.80;;;7.80;99.90;;;;;;5052771;28;20519;-54
2024/03/26 07:10:00;;;;;;;9.48;2.00;;;7.80;99.90;;;;;;5046735;28;20029;-57
2024/03/26 07:12:26;;;;;;;5.47;2.13;;;7.80;99.90;;;;;;5032739;28;20486;-55
2024/03/26 07:14:53;;;;;;;6.68;1.67;;;7.90;99.90;;;;;;5035834;28;20021;-55
2024/03/26 07:17:19;;;;;;;4.38;2.08;;;8.00;99.90;;;;;;5050805;28;20051;-56
2024/03/26 07:19:44;;;;;;;2.08;1.50;;;8.10;99.90;;;;;;5049462;28;20033;-55
2024/03/26 07:22:10;;;;;;;5.60;1.55;;;8.10;99.90;;;;;;5051865;28;20037;-55
2024/03/26 07:24:36;;;;;;;3.85;1.92;;;8.10;99.90;;;;;;5051811;28;20094;-55
2024/03/26 07:27:02;;;;;;;4.63;2.05;;;8.10;99.90;;;;;;5051773;28;20159;-55
2024/03/26 07:29:28;;;;;;;7.32;2.20;;;8.20;99.90;;;;;;5052008;28;20528;-55
2024/03/26 07:31:53;;;;;;;2.72;1.77;;;8.30;99.90;;;;;;5050014;28;20154;-55
2024/03/26 07:34:19;;;;;;;7.78;3.05;;;8.30;99.90;;;;;;5048785;28;20108;-56
2024/03/26 07:36:45;;;;;;;5.60;1.40;;;8.40;99.90;;;;;;5050970;28;20033;-55
2024/03/26 07:39:11;;;;;;;3.72;2.65;;;8.40;99.90;;;;;;5049986;28;20055;-56
2024/03/26 07:41:36;;;;;;;3.85;1.35;;;8.50;99.90;;;;;;5050001;28;20115;-55
2024/03/26 07:44:03;;;;;;;4.78;1.65;;;8.50;99.90;;;;;;5048173;28;20030;-54
2024/03/26 07:46:29;;;;;;;4.65;1.98;;;8.60;99.90;;;;;;5039672;28;20021;-55
2024/03/26 07:48:54;;;;;;;2.17;1.42;;;8.70;99.90;;;;;;5032562;28;20492;-54
2024/03/26 07:51:20;;;;;;;7.50;1.92;;;8.90;99.90;;;;;;5049153;28;20028;-54
2024/03/26 07:53:48;;;;;;;4.30;1.58;;;9.00;99.90;;;;;;5044947;28;20036;-42
2024/03/26 07:56:14;;;;;;;9.10;1.80;;;8.90;99.90;;;;;;5044721;28;20524;-45
2024/03/26 07:58:39;;;;;;;3.58;2.20;;;8.90;99.90;;;;;;5048248;28;20029;-42
2024/03/26 08:01:05;;;;;;;2.67;1.80;;;8.90;99.90;;;;;;5050520;28;20566;-41
2024/03/26 08:03:30;;;;;;;5.53;1.92;;;8.90;99.90;;;;;;5051213;28;20390;-41
2024/03/26 08:05:56;;;;;;;3.25;1.73;;;8.90;99.90;;;;;;5049711;28;20116;-45
2024/03/26 08:08:22;;;;;;;4.97;1.70;;;9.00;99.90;;;;;;5049463;28;20496;-45
2024/03/26 08:10:47;;;;;;;8.55;2.20;;;9.00;99.90;;;;;;5047231;28;20018;-42
2024/03/26 08:13:13;;;;;;;2.80;1.80;;;9.00;99.90;;;;;;5048911;28;20033;-50
2024/03/26 08:15:39;;;;;;;4.05;2.22;;;8.90;99.90;;;;;;5050938;28;20493;-43
2024/03/26 08:18:05;;;;;;;4.72;1.70;;;8.80;99.90;;;;;;5050945;28;20040;-43
2024/03/26 08:20:31;;;;;;;3.35;1.77;;;8.70;99.90;;;;;;5050228;28;20397;-40
2024/03/26 08:22:58;;;;;;;3.72;1.80;;;8.80;99.90;;;;;;5049923;28;20033;-47
2024/03/26 08:25:23;;;;;;;4.00;1.90;;;8.90;99.90;;;;;;5051991;28;20498;-47
2024/03/26 08:27:50;;;;;;;5.95;1.75;;;9.00;99.90;;;;;;5057283;28;20040;-48
2024/03/26 08:30:16;;;;;;;3.42;1.83;;;9.00;99.90;;;;;;5048166;28;20021;-42
2024/03/26 08:32:42;;;;;;;2.67;1.30;;;9.00;99.90;;;;;;5053050;28;20021;-54
2024/03/26 08:35:08;;;;;;;4.30;1.70;;;9.00;99.90;;;;;;5054230;28;20025;-53
2024/03/26 08:37:35;;;;;;;2.92;1.85;;;9.00;99.90;;;;;;5054687;28;20033;-54
2024/03/26 08:40:02;;;;;;;4.60;1.50;;;9.00;99.90;;;;;;5052483;28;20041;-56
2024/03/26 08:42:27;;;;;;;7.78;2.40;;;9.00;99.90;;;;;;5054654;28;20429;-54
2024/03/26 08:44:54;;;;;;;11.88;2.75;;;9.10;99.90;;;;;;5054165;28;20028;-54
2024/03/26 08:47:20;;;;;;;4.72;1.98;;;9.10;99.90;;;;;;5055081;28;20024;-40
2024/03/26 08:49:45;;;;;;;3.85;1.73;;;9.20;99.90;;;;;;5054534;28;20091;-56
2024/03/26 08:52:11;;;;;;;2.85;1.65;;;9.30;99.90;;;;;;5048329;28;20113;-42
2024/03/26 08:54:37;;;;;;;5.63;1.90;;;9.30;99.90;;;;;;5054142;28;20401;-45
2024/03/26 08:57:02;;;;;;;5.05;2.00;;;9.40;99.90;;;;;;5054552;28;20543;-42
2024/03/26 08:59:28;;;;;;;3.38;2.20;;;9.40;99.90;;;;;;5050034;28;20107;-48
2024/03/26 09:01:54;;;;;;;6.82;2.33;;;9.40;99.90;;;;;;5032390;28;20022;-58
2024/03/26 09:04:19;;;;;;;4.50;1.70;;;9.50;99.90;;;;;;5052173;28;20385;-55
2024/03/26 09:06:45;;;;;;;3.58;2.00;;;9.60;99.90;;;;;;5049096;28;20022;-55
2024/03/26 09:09:11;;;;;;;5.97;1.73;;;9.80;99.90;;;;;;5046575;28;20029;-55
2024/03/26 09:11:37;;;;;;;6.32;2.65;;;9.90;99.90;;;;;;5054004;28;20486;-56
2024/03/26 09:14:03;;;;;;;4.90;2.00;;;9.90;99.90;;;;;;5052758;28;20025;-56
2024/03/26 09:16:29;;;;;;;6.43;1.95;;;9.90;99.90;;;;;;5054063;28;20067;-56
2024/03/26 09:18:54;;;;;;;4.78;1.92;;;9.90;99.90;;;;;;5052998;28;20484;-54
2024/03/26 09:21:20;;;;;;;6.28;2.10;;;9.90;99.90;;;;;;5049120;28;20030;-45
2024/03/26 09:23:46;;;;;;;5.72;1.73;;;10.00;99.90;;;;;;5043804;28;20025;-44
2024/03/26 09:26:12;;;;;;;5.10;2.15;;;10.10;99.90;;;;;;5037660;28;20030;-49
2024/03/26 09:28:38;;;;;;;3.78;1.83;;;10.20;99.90;;;;;;5035429;28;20102;-55
2024/03/26 09:31:03;;;;;;;7.03;2.40;;;10.40;99.90;;;;;;5034926;28;20034;-55
2024/03/26 09:33:29;;;;;;;8.30;2.20;;;10.50;99.90;;;;;;5034685;28;20022;-52
2024/03/26 09:35:54;;;;;;;3.85;1.95;;;10.60;99.90;;;;;;5034668;28;20036;-56
2024/03/26 09:38:20;;;;;;;3.13;1.83;;;10.70;99.90;;;;;;5034623;28;20386;-58
2024/03/26 09:40:47;;;;;;;4.10;2.42;;;10.60;99.90;;;;;;5046111;28;20021;-55
2024/03/26 09:43:14;;;;;;;9.65;2.85;;;10.60;99.90;;;;;;5054664;28;20370;-57
2024/03/26 09:45:40;;;;;;;3.60;2.20;;;10.50;99.90;;;;;;5054344;28;20489;-52
2024/03/26 09:48:11;;;;;;;8.32;2.17;;;10.50;99.90;;;;;;5054331;28;20033;-55
2024/03/26 09:50:39;;;;;;;3.88;2.35;;;10.50;99.90;;;;;;5054296;28;20033;-57
2024/03/26 09:53:04;;;;;;;4.28;2.00;;;10.50;99.90;;;;;;5054487;28;20434;-42
2024/03/26 09:55:33;;;;;;;7.45;2.40;;;10.60;99.90;;;;;;5054078;28;20071;-45
2024/03/26 09:57:59;;;;;;;3.05;2.20;;;10.70;99.90;;;;;;5054208;28;20037;-47
2024/03/26 10:00:30;;;;;;;4.78;2.67;;;10.80;99.90;;;;;;5054346;28;20074;-43
2024/03/26 10:02:58;;;;;;;4.85;2.60;;;10.90;99.90;;;;;;5054072;28;20088;-41
2024/03/26 10:05:23;;;;;;;;;;;10.90;99.90;;;;;;5054366;28;20086;-41
2024/03/26 10:07:49;;;;;;;3.58;2.20;;;11.00;99.90;;;;;;5053904;28;20371;-41
2024/03/26 10:10:15;;;;;;;7.82;2.50;;;11.00;99.90;;;;;;5053953;28;20394;-43
2024/03/26 10:12:42;;;;;;;8.35;2.83;;;11.00;99.90;;;;;;5054273;28;20496;-54
2024/03/26 10:15:08;;;;;;;4.93;2.13;;;11.10;99.90;;;;;;5052814;28;20146;-44
2024/03/26 10:17:36;;;;;;;2.78;1.67;;;11.10;99.90;;;;;;5053598;28;20053;-42
2024/03/26 10:20:08;;;;;;;2.95;2.30;;;11.10;99.90;;;;;;5052385;28;20444;-41
2024/03/26 10:22:34;;;;;;;4.88;2.10;;;11.10;99.90;;;;;;5053592;28;20029;-45
2024/03/26 10:25:00;;;;;;;2.95;1.90;;;11.10;99.90;;;;;;5053585;28;20098;-45
2024/03/26 10:27:26;;;;;;;5.00;2.67;;;11.20;99.90;;;;;;5053431;28;20473;-46
2024/03/26 10:29:52;;;;;;;4.35;1.95;;;11.20;99.90;;;;;;5053514;28;20059;-49
2024/03/26 10:32:22;;;;;;;5.00;2.22;;;11.30;99.90;;;;;;5052631;28;20056;-45
2024/03/26 10:34:53;;;;;;;6.82;2.03;;;11.30;99.90;;;;;;5053524;28;20078;-48
2024/03/26 10:37:22;;;;;;;6.18;2.30;;;11.40;99.90;;;;;;5053470;28;20020;-42
2024/03/26 10:39:50;;;;;;;8.13;2.40;;;11.50;99.90;;;;;;5053340;28;20029;-42
2024/03/26 10:42:18;;;;;;;4.97;2.25;;;11.50;99.90;;;;;;5053307;28;20497;-45
2024/03/26 10:44:44;;;;;;;3.60;1.92;;;11.60;99.90;;;;;;5053132;28;20028;-44
2024/03/26 10:47:10;;;;;;;2.35;1.80;;;11.60;99.90;;;;;;5053234;28;20485;-56
2024/03/26 10:49:38;;;;;;;2.90;2.08;;;11.70;99.90;;;;;;5053311;28;20478;-55
2024/03/26 10:52:06;;;;;;;5.38;2.25;;;11.80;99.90;;;;;;5051679;28;20359;-53
2024/03/26 10:54:32;;;;;;;3.38;2.22;;;11.80;99.90;;;;;;5052489;28;20056;-56
2024/03/26 10:56:59;;;;;;;3.42;2.17;;;11.80;99.90;;;;;;5052939;28;20562;-54
2024/03/26 10:59:25;;;;;;;8.02;2.40;;;11.80;99.90;;;;;;5053193;28;20474;-55
2024/03/26 11:01:51;;;;;;;3.35;1.98;;;11.80;99.90;;;;;;5053221;28;20028;-55
2024/03/26 11:04:17;;;;;;;4.15;2.33;;;11.70;99.90;;;;;;5052650;28;20060;-54
2024/03/26 11:06:42;;;;;;;7.97;2.55;;;11.60;99.90;;;;;;5052844;28;20064;-56
2024/03/26 11:09:08;;;;;;;3.05;2.05;;;11.60;99.90;;;;;;5052822;28;20025;-57
2024/03/26 11:11:35;;;;;;;3.15;2.22;;;11.60;99.90;;;;;;5051455;28;20048;-52
2024/03/26 11:14:03;;;;;;;8.20;2.20;;;11.60;99.90;;;;;;5052734;28;20029;-56
2024/03/26 11:16:33;;;;;;;5.03;2.50;;;11.60;99.90;;;;;;5052500;28;20067;-54
2024/03/26 11:19:24;;;;;;;6.28;2.40;;;11.60;99.90;;;;;;5052939;28;20387;-54
2024/03/26 11:21:54;;;;;;;3.25;2.20;;;11.80;99.90;;;;;;5052640;28;20422;-54
2024/03/26 11:24:34;;;;;;;11.32;2.20;;;11.90;99.90;;;;;;5052829;28;20026;-55
2024/03/26 11:27:02;;;;;;;5.95;2.47;;;11.90;99.90;;;;;;5052351;28;20047;-56
2024/03/26 11:29:29;;;;;;;4.28;2.20;;;11.90;99.90;;;;;;5052452;28;20358;-55
2024/03/26 11:31:56;;;;;;;4.70;2.20;;;11.90;99.90;;;;;;5052358;28;20481;-54
2024/03/26 11:34:23;;;;;;;5.15;2.33;;;11.90;99.90;;;;;;5052416;28;20029;-54
2024/03/26 11:36:52;;;;;;;4.63;2.90;;;11.90;99.90;;;;;;5052413;28;20112;-43
2024/03/26 11:39:21;;;;;;;2.75;2.15;;;12.00;99.90;;;;;;5052131;28;20111;-40
2024/03/26 11:41:47;;;;;;;5.93;2.22;;;12.10;99.90;;;;;;5052558;28;20032;-41
2024/03/26 11:44:13;;;;;;;7.18;3.13;;;12.10;99.90;;;;;;5052211;28;20457;-43
2024/03/26 11:46:39;;;;;;;9.05;2.75;;;12.20;99.90;;;;;;5052211;28;20092;-40
2024/03/26 11:49:04;;;;;;;5.18;2.65;;;12.20;99.90;;;;;;5050904;28;20021;-44
2024/03/26 11:51:30;;;;;;;6.95;2.65;;;12.30;99.90;;;;;;5052224;28;20020;-43
2024/03/26 11:53:56;;;;;;;8.43;2.92;;;12.30;99.90;;;;;;5049892;28;20063;-42
2024/03/26 11:56:23;;;;;;;3.58;2.25;;;12.30;99.90;;;;;;5051596;28;20069;-43
2024/03/26 11:58:49;;;;;;;8.50;3.47;;;12.30;99.90;;;;;;5051953;28;20443;-47
2024/03/26 12:01:20;;;;;;;6.53;2.75;;;12.40;99.90;;;;;;5052250;28;20485;-46
2024/03/26 12:04:00;;;;;;;10.07;3.25;;;12.50;99.90;;;;;;5051925;28;20495;-40
2024/03/26 12:06:27;;;;;;;7.57;2.28;;;12.50;99.90;;;;;;5051261;28;20390;-39
2024/03/26 12:08:57;;;;;;;3.90;2.70;;;12.60;99.90;;;;;;5056187;28;20052;-40
2024/03/26 12:11:23;;;;;;;5.10;2.85;;;12.70;99.90;;;;;;5056143;28;20032;-39
2024/03/26 12:13:50;;;;;;;7.60;3.15;;;12.80;99.90;;;;;;5054742;28;20079;-42
2024/03/26 12:16:27;;;;;;;6.93;3.17;;;12.80;99.90;;;;;;5056083;28;20382;-41
2024/03/26 12:18:56;;;;;;;4.93;3.03;;;12.90;99.90;;;;;;5055929;28;20029;-42
2024/03/26 12:21:27;;;;;;;6.93;3.25;;;12.90;99.90;;;;;;5056014;28;20029;-45
2024/03/26 12:23:54;;;;;;;6.53;3.20;;;13.00;99.90;;;;;;5056138;28;20032;-41
2024/03/26 12:26:20;;;;;;;11.70;3.38;;;13.00;99.90;;;;;;5056032;28;20408;-41
2024/03/26 12:28:47;;;;;;;5.43;3.60;;;12.90;99.90;;;;;;5055807;28;20453;-43
2024/03/26 12:31:16;;;;;;;6.78;3.08;;;12.80;99.90;;;;;;5055785;28;20063;-43
2024/03/26 12:33:45;;;;;;;8.32;3.70;;;12.90;99.90;;;;;;5055825;28;20470;-40
2024/03/26 12:36:11;;;;;;;3.67;2.95;;;12.80;99.90;;;;;;5055702;28;20056;-43
2024/03/26 12:38:38;;;;;;;7.65;3.03;;;12.70;99.90;;;;;;5055603;28;20464;-42
2024/03/26 12:41:04;;;;;;;5.20;3.05;;;12.70;99.90;;;;;;5055552;28;20013;-40
2024/03/26 12:43:30;;;;;;;5.32;2.92;;;12.80;99.90;;;;;;5055328;28;20032;-46
2024/03/26 12:45:55;;;;;;;4.95;2.85;;;12.70;99.90;;;;;;5054168;28;20021;-42
2024/03/26 12:48:21;;;;;;;5.45;2.90;;;12.60;99.90;;;;;;5055437;28;20036;-42